sensor_id;sensor_type;location;lat;lon;timestamp;P1;durP1;ratioP1;P2;durP2;ratioP2
71091;SDS011;58751;50.708;7.134;2023-11-22T00:00:28;7.63;;;6.90;;
71091;SDS011;58751;50.708;7.134;2023-11-22T00:02:53;7.90;;;6.10;;
71091;SDS011;58751;50.708;7.134;2023-11-22T00:05:19;7.10;;;6.30;;
71091;SDS011;58751;50.708;7.134;2023-11-22T00:07:44;9.50;;;6.97;;
71091;SDS011;58751;50.708;7.134;2023-11-22T00:10:11;7.00;;;6.40;;
71091;SDS011;58751;50.708;7.134;2023-11-22T00:12:36;7.80;;;7.10;;
71091;SDS011;58751;50.708;7.134;2023-11-22T00:15:02;8.73;;;7.90;;
71091;SDS011;58751;50.708;7.134;2023-11-22T00:17:28;9.15;;;7.22;;
71091;SDS011;58751;50.708;7.134;2023-11-22T00:19:53;7.70;;;7.00;;
71091;SDS011;58751;50.708;7.134;2023-11-22T00:22:19;8.00;;;7.20;;
71091;SDS011;58751;50.708;7.134;2023-11-22T00:24:44;7.77;;;6.97;;
71091;SDS011;58751;50.708;7.134;2023-11-22T00:27:11;7.30;;;6.60;;
71091;SDS011;58751;50.708;7.134;2023-11-22T00:29:36;8.65;;;7.35;;
71091;SDS011;58751;50.708;7.134;2023-11-22T00:32:02;9.10;;;7.23;;
71091;SDS011;58751;50.708;7.134;2023-11-22T00:34:27;7.00;;;6.40;;
71091;SDS011;58751;50.708;7.134;2023-11-22T00:36:53;6.60;;;6.00;;
71091;SDS011;58751;50.708;7.134;2023-11-22T00:39:18;7.87;;;7.17;;
71091;SDS011;58751;50.708;7.134;2023-11-22T00:41:44;8.23;;;7.43;;
71091;SDS011;58751;50.708;7.134;2023-11-22T00:44:11;9.90;;;8.50;;
71091;SDS011;58751;50.708;7.134;2023-11-22T00:46:36;9.05;;;6.20;;
71091;SDS011;58751;50.708;7.134;2023-11-22T00:49:02;8.50;;;7.70;;
71091;SDS011;58751;50.708;7.134;2023-11-22T00:51:27;7.83;;;7.03;;
71091;SDS011;58751;50.708;7.134;2023-11-22T00:53:52;7.97;;;7.17;;
71091;SDS011;58751;50.708;7.134;2023-11-22T00:56:18;8.47;;;7.63;;
71091;SDS011;58751;50.708;7.134;2023-11-22T00:58:43;8.77;;;7.70;;
71091;SDS011;58751;50.708;7.134;2023-11-22T01:01:10;8.23;;;7.23;;
71091;SDS011;58751;50.708;7.134;2023-11-22T01:03:35;8.00;;;7.20;;
71091;SDS011;58751;50.708;7.134;2023-11-22T01:06:01;8.20;;;7.50;;
71091;SDS011;58751;50.708;7.134;2023-11-22T01:08:26;9.60;;;8.70;;
71091;SDS011;58751;50.708;7.134;2023-11-22T01:10:51;9.30;;;7.60;;
71091;SDS011;58751;50.708;7.134;2023-11-22T01:13:17;9.60;;;8.33;;
71091;SDS011;58751;50.708;7.134;2023-11-22T01:15:42;8.80;;;8.00;;
71091;SDS011;58751;50.708;7.134;2023-11-22T01:18:09;11.03;;;9.73;;
71091;SDS011;58751;50.708;7.134;2023-11-22T01:20:34;10.50;;;9.43;;
71091;SDS011;58751;50.708;7.134;2023-11-22T01:23:00;11.17;;;10.03;;
71091;SDS011;58751;50.708;7.134;2023-11-22T01:25:25;10.30;;;9.23;;
71091;SDS011;58751;50.708;7.134;2023-11-22T01:27:50;11.03;;;9.90;;
71091;SDS011;58751;50.708;7.134;2023-11-22T01:30:16;10.30;;;8.97;;
71091;SDS011;58751;50.708;7.134;2023-11-22T01:32:41;9.40;;;8.50;;
71091;SDS011;58751;50.708;7.134;2023-11-22T01:35:08;10.37;;;9.47;;
71091;SDS011;58751;50.708;7.134;2023-11-22T01:37:34;10.85;;;9.75;;
71091;SDS011;58751;50.708;7.134;2023-11-22T01:39:59;12.10;;;10.70;;
71091;SDS011;58751;50.708;7.134;2023-11-22T01:42:24;12.90;;;10.00;;
71091;SDS011;58751;50.708;7.134;2023-11-22T01:44:50;10.23;;;9.00;;
71091;SDS011;58751;50.708;7.134;2023-11-22T01:47:15;10.30;;;9.30;;
71091;SDS011;58751;50.708;7.134;2023-11-22T01:49:40;10.57;;;9.47;;
71091;SDS011;58751;50.708;7.134;2023-11-22T01:52:07;14.17;;;10.40;;
71091;SDS011;58751;50.708;7.134;2023-11-22T01:54:33;14.70;;;9.98;;
71091;SDS011;58751;50.708;7.134;2023-11-22T01:56:58;11.37;;;10.17;;
71091;SDS011;58751;50.708;7.134;2023-11-22T01:59:24;10.87;;;9.87;;
71091;SDS011;58751;50.708;7.134;2023-11-22T02:01:50;10.27;;;9.23;;
71091;SDS011;58751;50.708;7.134;2023-11-22T02:04:15;11.60;;;10.33;;
71091;SDS011;58751;50.708;7.134;2023-11-22T02:06:41;13.27;;;10.80;;
71091;SDS011;58751;50.708;7.134;2023-11-22T02:09:08;11.97;;;10.87;;
71091;SDS011;58751;50.708;7.134;2023-11-22T02:11:33;15.13;;;10.85;;
71091;SDS011;58751;50.708;7.134;2023-11-22T02:13:58;11.37;;;10.27;;
71091;SDS011;58751;50.708;7.134;2023-11-22T02:16:24;9.70;;;8.60;;
71091;SDS011;58751;50.708;7.134;2023-11-22T02:18:49;10.63;;;9.53;;
71091;SDS011;58751;50.708;7.134;2023-11-22T02:21:16;11.93;;;10.60;;
71091;SDS011;58751;50.708;7.134;2023-11-22T02:23:43;12.25;;;10.75;;
71091;SDS011;58751;50.708;7.134;2023-11-22T02:26:08;11.05;;;10.05;;
71091;SDS011;58751;50.708;7.134;2023-11-22T02:28:34;11.03;;;9.97;;
71091;SDS011;58751;50.708;7.134;2023-11-22T02:30:59;10.73;;;9.60;;
71091;SDS011;58751;50.708;7.134;2023-11-22T02:33:24;11.10;;;10.10;;
71091;SDS011;58751;50.708;7.134;2023-11-22T02:35:50;8.87;;;7.97;;
71091;SDS011;58751;50.708;7.134;2023-11-22T02:38:15;11.10;;;9.80;;
71091;SDS011;58751;50.708;7.134;2023-11-22T02:40:42;10.47;;;9.33;;
71091;SDS011;58751;50.708;7.134;2023-11-22T02:43:07;12.95;;;9.02;;
71091;SDS011;58751;50.708;7.134;2023-11-22T02:45:33;9.97;;;8.97;;
71091;SDS011;58751;50.708;7.134;2023-11-22T02:47:58;12.00;;;10.47;;
71091;SDS011;58751;50.708;7.134;2023-11-22T02:50:24;9.90;;;9.00;;
71091;SDS011;58751;50.708;7.134;2023-11-22T02:52:49;11.40;;;9.30;;
71091;SDS011;58751;50.708;7.134;2023-11-22T02:55:14;9.80;;;8.67;;
71091;SDS011;58751;50.708;7.134;2023-11-22T02:57:41;10.70;;;9.37;;
71091;SDS011;58751;50.708;7.134;2023-11-22T03:00:07;10.10;;;8.55;;
71091;SDS011;58751;50.708;7.134;2023-11-22T03:02:34;10.23;;;8.50;;
71091;SDS011;58751;50.708;7.134;2023-11-22T03:04:59;9.90;;;8.87;;
71091;SDS011;58751;50.708;7.134;2023-11-22T03:07:25;9.03;;;8.30;;
71091;SDS011;58751;50.708;7.134;2023-11-22T03:09:50;8.80;;;7.87;;
71091;SDS011;58751;50.708;7.134;2023-11-22T03:12:16;9.73;;;8.70;;
71091;SDS011;58751;50.708;7.134;2023-11-22T03:14:43;9.37;;;8.40;;
71091;SDS011;58751;50.708;7.134;2023-11-22T03:17:08;12.00;;;8.48;;
71091;SDS011;58751;50.708;7.134;2023-11-22T03:19:34;13.80;;;9.90;;
71091;SDS011;58751;50.708;7.134;2023-11-22T03:21:59;10.40;;;9.23;;
71091;SDS011;58751;50.708;7.134;2023-11-22T03:24:24;10.80;;;8.83;;
71091;SDS011;58751;50.708;7.134;2023-11-22T03:26:50;12.20;;;9.40;;
71091;SDS011;58751;50.708;7.134;2023-11-22T03:29:15;12.23;;;8.90;;
71091;SDS011;58751;50.708;7.134;2023-11-22T03:31:42;10.73;;;8.93;;
71091;SDS011;58751;50.708;7.134;2023-11-22T03:34:07;10.15;;;9.15;;
71091;SDS011;58751;50.708;7.134;2023-11-22T03:36:33;9.50;;;8.50;;
71091;SDS011;58751;50.708;7.134;2023-11-22T03:38:58;11.13;;;9.40;;
71091;SDS011;58751;50.708;7.134;2023-11-22T03:41:24;8.00;;;7.20;;
71091;SDS011;58751;50.708;7.134;2023-11-22T03:43:49;12.93;;;8.20;;
71091;SDS011;58751;50.708;7.134;2023-11-22T03:46:14;10.73;;;9.63;;
71091;SDS011;58751;50.708;7.134;2023-11-22T03:48:41;11.27;;;9.57;;
71091;SDS011;58751;50.708;7.134;2023-11-22T03:51:06;12.43;;;10.57;;
71091;SDS011;58751;50.708;7.134;2023-11-22T03:53:32;8.50;;;7.60;;
71091;SDS011;58751;50.708;7.134;2023-11-22T03:55:57;10.47;;;9.50;;
71091;SDS011;58751;50.708;7.134;2023-11-22T03:58:23;10.93;;;9.80;;
71091;SDS011;58751;50.708;7.134;2023-11-22T04:00:48;10.20;;;8.70;;
71091;SDS011;58751;50.708;7.134;2023-11-22T04:03:13;10.50;;;8.73;;
71091;SDS011;58751;50.708;7.134;2023-11-22T04:05:40;12.10;;;10.87;;
71091;SDS011;58751;50.708;7.134;2023-11-22T04:08:06;9.98;;;8.85;;
71091;SDS011;58751;50.708;7.134;2023-11-22T04:10:31;9.73;;;8.60;;
71091;SDS011;58751;50.708;7.134;2023-11-22T04:12:57;10.77;;;9.70;;
71091;SDS011;58751;50.708;7.134;2023-11-22T04:15:22;10.67;;;9.57;;
71091;SDS011;58751;50.708;7.134;2023-11-22T04:17:47;11.30;;;8.97;;
71091;SDS011;58751;50.708;7.134;2023-11-22T04:20:13;9.10;;;8.20;;
71091;SDS011;58751;50.708;7.134;2023-11-22T04:22:40;10.37;;;9.00;;
71091;SDS011;58751;50.708;7.134;2023-11-22T04:25:06;10.60;;;9.50;;
71091;SDS011;58751;50.708;7.134;2023-11-22T04:27:32;10.73;;;9.10;;
71091;SDS011;58751;50.708;7.134;2023-11-22T04:29:58;9.80;;;8.90;;
71091;SDS011;58751;50.708;7.134;2023-11-22T04:32:23;12.80;;;9.30;;
71091;SDS011;58751;50.708;7.134;2023-11-22T04:34:49;9.73;;;8.53;;
71091;SDS011;58751;50.708;7.134;2023-11-22T04:37:14;11.67;;;10.00;;
71091;SDS011;58751;50.708;7.134;2023-11-22T04:39:41;10.17;;;8.73;;
71091;SDS011;58751;50.708;7.134;2023-11-22T04:42:06;10.35;;;8.75;;
71091;SDS011;58751;50.708;7.134;2023-11-22T04:44:32;9.13;;;8.33;;
71091;SDS011;58751;50.708;7.134;2023-11-22T04:46:57;15.40;;;11.27;;
71091;SDS011;58751;50.708;7.134;2023-11-22T04:49:22;11.03;;;9.93;;
71091;SDS011;58751;50.708;7.134;2023-11-22T04:51:48;10.60;;;9.13;;
71091;SDS011;58751;50.708;7.134;2023-11-22T04:54:13;11.30;;;10.10;;
71091;SDS011;58751;50.708;7.134;2023-11-22T04:56:40;10.73;;;9.63;;
71091;SDS011;58751;50.708;7.134;2023-11-22T04:59:05;12.43;;;9.40;;
71091;SDS011;58751;50.708;7.134;2023-11-22T05:01:31;12.70;;;9.97;;
71091;SDS011;58751;50.708;7.134;2023-11-22T05:03:56;10.20;;;9.20;;
71091;SDS011;58751;50.708;7.134;2023-11-22T05:06:22;9.83;;;8.87;;
71091;SDS011;58751;50.708;7.134;2023-11-22T05:08:47;10.33;;;9.33;;
71091;SDS011;58751;50.708;7.134;2023-11-22T05:11:13;9.97;;;8.93;;
71091;SDS011;58751;50.708;7.134;2023-11-22T05:13:39;11.73;;;10.53;;
71091;SDS011;58751;50.708;7.134;2023-11-22T05:16:05;11.52;;;9.15;;
71091;SDS011;58751;50.708;7.134;2023-11-22T05:18:31;9.68;;;8.65;;
71091;SDS011;58751;50.708;7.134;2023-11-22T05:20:56;9.20;;;8.30;;
71091;SDS011;58751;50.708;7.134;2023-11-22T05:23:22;10.70;;;9.40;;
71091;SDS011;58751;50.708;7.134;2023-11-22T05:25:47;11.97;;;9.60;;
71091;SDS011;58751;50.708;7.134;2023-11-22T05:28:12;11.63;;;9.90;;
71091;SDS011;58751;50.708;7.134;2023-11-22T05:30:39;9.87;;;8.97;;
71091;SDS011;58751;50.708;7.134;2023-11-22T05:33:05;12.10;;;9.68;;
71091;SDS011;58751;50.708;7.134;2023-11-22T05:35:30;11.90;;;9.80;;
71091;SDS011;58751;50.708;7.134;2023-11-22T05:37:56;12.63;;;8.27;;
71091;SDS011;58751;50.708;7.134;2023-11-22T05:40:21;6.90;;;6.17;;
71091;SDS011;58751;50.708;7.134;2023-11-22T05:42:46;6.67;;;5.97;;
71091;SDS011;58751;50.708;7.134;2023-11-22T05:45:12;9.10;;;7.80;;
71091;SDS011;58751;50.708;7.134;2023-11-22T05:47:39;8.43;;;5.37;;
71091;SDS011;58751;50.708;7.134;2023-11-22T05:50:04;5.30;;;4.55;;
71091;SDS011;58751;50.708;7.134;2023-11-22T05:52:30;5.95;;;5.22;;
71091;SDS011;58751;50.708;7.134;2023-11-22T05:54:56;5.73;;;4.60;;
71091;SDS011;58751;50.708;7.134;2023-11-22T05:57:21;5.73;;;5.13;;
71091;SDS011;58751;50.708;7.134;2023-11-22T05:59:46;6.33;;;5.20;;
71091;SDS011;58751;50.708;7.134;2023-11-22T06:02:12;7.20;;;5.27;;
71091;SDS011;58751;50.708;7.134;2023-11-22T06:04:39;6.03;;;5.50;;
71091;SDS011;58751;50.708;7.134;2023-11-22T06:07:04;5.30;;;4.80;;
71091;SDS011;58751;50.708;7.134;2023-11-22T06:09:29;5.50;;;4.80;;
71091;SDS011;58751;50.708;7.134;2023-11-22T06:11:55;5.57;;;4.87;;
71091;SDS011;58751;50.708;7.134;2023-11-22T06:14:20;5.60;;;4.50;;
71091;SDS011;58751;50.708;7.134;2023-11-22T06:16:45;5.00;;;4.40;;
71091;SDS011;58751;50.708;7.134;2023-11-22T06:19:11;5.90;;;4.13;;
71091;SDS011;58751;50.708;7.134;2023-11-22T06:21:38;4.70;;;4.30;;
71091;SDS011;58751;50.708;7.134;2023-11-22T06:24:03;4.78;;;4.32;;
71091;SDS011;58751;50.708;7.134;2023-11-22T06:26:29;4.30;;;3.90;;
71091;SDS011;58751;50.708;7.134;2023-11-22T06:28:54;4.67;;;4.13;;
71091;SDS011;58751;50.708;7.134;2023-11-22T06:31:20;5.13;;;4.60;;
71091;SDS011;58751;50.708;7.134;2023-11-22T06:33:45;5.00;;;3.77;;
71091;SDS011;58751;50.708;7.134;2023-11-22T06:36:10;5.03;;;4.53;;
71091;SDS011;58751;50.708;7.134;2023-11-22T06:38:37;4.70;;;4.27;;
71091;SDS011;58751;50.708;7.134;2023-11-22T06:41:02;5.80;;;5.30;;
71091;SDS011;58751;50.708;7.134;2023-11-22T06:43:28;4.00;;;3.60;;
71091;SDS011;58751;50.708;7.134;2023-11-22T06:45:53;5.00;;;4.60;;
71091;SDS011;58751;50.708;7.134;2023-11-22T06:48:19;4.77;;;4.20;;
71091;SDS011;58751;50.708;7.134;2023-11-22T06:50:44;5.30;;;4.90;;
71091;SDS011;58751;50.708;7.134;2023-11-22T06:53:09;6.80;;;5.27;;
71091;SDS011;58751;50.708;7.134;2023-11-22T06:55:36;4.67;;;4.27;;
71091;SDS011;58751;50.708;7.134;2023-11-22T06:58:01;6.88;;;4.90;;
71091;SDS011;58751;50.708;7.134;2023-11-22T07:00:27;7.00;;;4.73;;
71091;SDS011;58751;50.708;7.134;2023-11-22T07:02:52;7.20;;;5.00;;
71091;SDS011;58751;50.708;7.134;2023-11-22T07:05:18;5.70;;;5.10;;
71091;SDS011;58751;50.708;7.134;2023-11-22T07:07:43;6.60;;;5.30;;
71091;SDS011;58751;50.708;7.134;2023-11-22T07:10:09;6.20;;;5.60;;
71091;SDS011;58751;50.708;7.134;2023-11-22T07:12:36;5.43;;;4.72;;
71091;SDS011;58751;50.708;7.134;2023-11-22T07:15:01;13.07;;;5.07;;
71091;SDS011;58751;50.708;7.134;2023-11-22T07:17:27;8.00;;;5.20;;
71091;SDS011;58751;50.708;7.134;2023-11-22T07:19:52;5.90;;;4.87;;
71091;SDS011;58751;50.708;7.134;2023-11-22T07:22:18;5.93;;;4.50;;
71091;SDS011;58751;50.708;7.134;2023-11-22T07:24:43;6.50;;;4.63;;
71091;SDS011;58751;50.708;7.134;2023-11-22T07:27:09;10.13;;;7.57;;
71091;SDS011;58751;50.708;7.134;2023-11-22T07:29:36;9.97;;;6.57;;
71091;SDS011;58751;50.708;7.134;2023-11-22T07:32:01;6.32;;;5.18;;
71091;SDS011;58751;50.708;7.134;2023-11-22T07:34:27;8.93;;;5.70;;
71091;SDS011;58751;50.708;7.134;2023-11-22T07:36:52;6.10;;;5.50;;
71091;SDS011;58751;50.708;7.134;2023-11-22T07:39:18;6.10;;;5.50;;
71091;SDS011;58751;50.708;7.134;2023-11-22T07:41:43;7.67;;;5.13;;
71091;SDS011;58751;50.708;7.134;2023-11-22T07:44:08;6.43;;;4.90;;
71091;SDS011;58751;50.708;7.134;2023-11-22T07:46:35;5.17;;;4.67;;
71091;SDS011;58751;50.708;7.134;2023-11-22T07:49:00;5.20;;;4.70;;
71091;SDS011;58751;50.708;7.134;2023-11-22T07:51:26;5.90;;;4.90;;
71091;SDS011;58751;50.708;7.134;2023-11-22T07:53:51;8.70;;;5.30;;
71091;SDS011;58751;50.708;7.134;2023-11-22T07:56:17;9.00;;;4.87;;
71091;SDS011;58751;50.708;7.134;2023-11-22T07:58:42;5.93;;;4.80;;
71091;SDS011;58751;50.708;7.134;2023-11-22T08:01:07;6.60;;;4.80;;
71091;SDS011;58751;50.708;7.134;2023-11-22T08:03:34;5.40;;;4.30;;
71091;SDS011;58751;50.708;7.134;2023-11-22T08:06:00;4.25;;;3.95;;
71091;SDS011;58751;50.708;7.134;2023-11-22T08:08:25;4.00;;;3.30;;
71091;SDS011;58751;50.708;7.134;2023-11-22T08:10:50;4.30;;;3.90;;
71091;SDS011;58751;50.708;7.134;2023-11-22T08:13:16;3.27;;;3.07;;
71091;SDS011;58751;50.708;7.134;2023-11-22T08:15:41;4.17;;;3.87;;
71091;SDS011;58751;50.708;7.134;2023-11-22T08:18:07;2.93;;;2.73;;
71091;SDS011;58751;50.708;7.134;2023-11-22T08:20:33;3.10;;;2.73;;
71091;SDS011;58751;50.708;7.134;2023-11-22T08:22:59;3.70;;;3.40;;
71091;SDS011;58751;50.708;7.134;2023-11-22T08:25:24;4.20;;;3.60;;
71091;SDS011;58751;50.708;7.134;2023-11-22T08:27:50;3.70;;;3.17;;
71091;SDS011;58751;50.708;7.134;2023-11-22T08:30:15;4.60;;;3.73;;
71091;SDS011;58751;50.708;7.134;2023-11-22T08:32:41;6.20;;;3.60;;
71091;SDS011;58751;50.708;7.134;2023-11-22T08:35:08;3.50;;;3.20;;
71091;SDS011;58751;50.708;7.134;2023-11-22T08:37:35;3.53;;;3.20;;
71091;SDS011;58751;50.708;7.134;2023-11-22T08:40:00;4.97;;;3.08;;
71091;SDS011;58751;50.708;7.134;2023-11-22T08:42:26;3.70;;;2.87;;
71091;SDS011;58751;50.708;7.134;2023-11-22T08:44:51;3.97;;;3.57;;
71091;SDS011;58751;50.708;7.134;2023-11-22T08:47:17;3.37;;;3.07;;
71091;SDS011;58751;50.708;7.134;2023-11-22T08:49:42;3.70;;;3.40;;
71091;SDS011;58751;50.708;7.134;2023-11-22T08:52:08;3.83;;;3.53;;
71091;SDS011;58751;50.708;7.134;2023-11-22T08:54:34;6.13;;;3.27;;
71091;SDS011;58751;50.708;7.134;2023-11-22T08:57:00;3.05;;;2.85;;
71091;SDS011;58751;50.708;7.134;2023-11-22T08:59:25;3.53;;;3.23;;
71091;SDS011;58751;50.708;7.134;2023-11-22T09:01:51;2.83;;;2.60;;
71091;SDS011;58751;50.708;7.134;2023-11-22T09:04:16;3.53;;;3.27;;
71091;SDS011;58751;50.708;7.134;2023-11-22T09:06:41;3.87;;;3.47;;
71091;SDS011;58751;50.708;7.134;2023-11-22T09:09:07;3.33;;;3.03;;
71091;SDS011;58751;50.708;7.134;2023-11-22T09:11:34;5.00;;;4.60;;
71091;SDS011;58751;50.708;7.134;2023-11-22T09:13:59;3.80;;;3.50;;
71091;SDS011;58751;50.708;7.134;2023-11-22T09:16:25;3.10;;;2.77;;
71091;SDS011;58751;50.708;7.134;2023-11-22T09:18:50;3.60;;;3.30;;
71091;SDS011;58751;50.708;7.134;2023-11-22T09:21:16;6.43;;;3.93;;
71091;SDS011;58751;50.708;7.134;2023-11-22T09:23:42;4.23;;;3.50;;
71091;SDS011;58751;50.708;7.134;2023-11-22T09:26:08;5.13;;;3.65;;
71091;SDS011;58751;50.708;7.134;2023-11-22T09:28:34;4.50;;;3.73;;
71091;SDS011;58751;50.708;7.134;2023-11-22T09:31:00;4.38;;;3.90;;
71091;SDS011;58751;50.708;7.134;2023-11-22T09:33:25;4.17;;;3.10;;
71091;SDS011;58751;50.708;7.134;2023-11-22T09:35:51;3.10;;;2.80;;
71091;SDS011;58751;50.708;7.134;2023-11-22T09:38:16;4.50;;;4.10;;
71091;SDS011;58751;50.708;7.134;2023-11-22T09:40:42;3.07;;;2.87;;
71091;SDS011;58751;50.708;7.134;2023-11-22T09:43:09;4.35;;;3.20;;
71091;SDS011;58751;50.708;7.134;2023-11-22T09:45:36;3.67;;;3.27;;
71091;SDS011;58751;50.708;7.134;2023-11-22T09:48:02;3.70;;;3.40;;
71091;SDS011;58751;50.708;7.134;2023-11-22T09:50:29;3.70;;;3.40;;
71091;SDS011;58751;50.708;7.134;2023-11-22T09:53:00;3.88;;;3.47;;
71091;SDS011;58751;50.708;7.134;2023-11-22T09:55:28;3.65;;;3.10;;
71091;SDS011;58751;50.708;7.134;2023-11-22T09:57:53;3.35;;;2.92;;
71091;SDS011;58751;50.708;7.134;2023-11-22T10:00:20;8.85;;;2.95;;
71091;SDS011;58751;50.708;7.134;2023-11-22T10:02:47;3.63;;;2.95;;
71091;SDS011;58751;50.708;7.134;2023-11-22T10:05:13;3.50;;;3.20;;
71091;SDS011;58751;50.708;7.134;2023-11-22T10:07:39;2.67;;;2.43;;
71091;SDS011;58751;50.708;7.134;2023-11-22T10:10:05;3.63;;;3.33;;
71091;SDS011;58751;50.708;7.134;2023-11-22T10:12:31;3.88;;;3.58;;
71091;SDS011;58751;50.708;7.134;2023-11-22T10:15:00;3.73;;;3.40;;
71091;SDS011;58751;50.708;7.134;2023-11-22T10:17:36;2.83;;;2.58;;
71091;SDS011;58751;50.708;7.134;2023-11-22T10:20:03;2.90;;;2.70;;
71091;SDS011;58751;50.708;7.134;2023-11-22T10:22:29;2.65;;;2.45;;
71091;SDS011;58751;50.708;7.134;2023-11-22T10:24:58;3.03;;;2.77;;
71091;SDS011;58751;50.708;7.134;2023-11-22T10:27:23;3.17;;;2.83;;
71091;SDS011;58751;50.708;7.134;2023-11-22T10:29:48;2.40;;;2.20;;
71091;SDS011;58751;50.708;7.134;2023-11-22T10:32:15;2.90;;;2.60;;
71091;SDS011;58751;50.708;7.134;2023-11-22T10:34:41;2.78;;;2.58;;
71091;SDS011;58751;50.708;7.134;2023-11-22T10:37:10;2.47;;;2.28;;
71091;SDS011;58751;50.708;7.134;2023-11-22T10:39:35;3.55;;;2.80;;
71091;SDS011;58751;50.708;7.134;2023-11-22T10:42:01;7.63;;;2.40;;
71091;SDS011;58751;50.708;7.134;2023-11-22T10:44:27;2.50;;;2.30;;
71091;SDS011;58751;50.708;7.134;2023-11-22T10:46:52;3.23;;;2.93;;
71091;SDS011;58751;50.708;7.134;2023-11-22T10:49:18;3.30;;;3.00;;
71091;SDS011;58751;50.708;7.134;2023-11-22T10:51:44;3.93;;;3.23;;
71091;SDS011;58751;50.708;7.134;2023-11-22T10:54:18;5.60;;;2.40;;
71091;SDS011;58751;50.708;7.134;2023-11-22T10:56:43;2.70;;;2.50;;
71091;SDS011;58751;50.708;7.134;2023-11-22T10:59:13;2.45;;;2.25;;
71091;SDS011;58751;50.708;7.134;2023-11-22T11:01:38;2.35;;;2.13;;
71091;SDS011;58751;50.708;7.134;2023-11-22T11:04:08;1.85;;;1.67;;
71091;SDS011;58751;50.708;7.134;2023-11-22T11:06:35;2.33;;;2.13;;
71091;SDS011;58751;50.708;7.134;2023-11-22T11:09:01;2.28;;;2.08;;
71091;SDS011;58751;50.708;7.134;2023-11-22T11:11:29;2.28;;;2.08;;
71091;SDS011;58751;50.708;7.134;2023-11-22T11:13:57;2.65;;;2.10;;
71091;SDS011;58751;50.708;7.134;2023-11-22T11:16:22;2.60;;;2.40;;
71091;SDS011;58751;50.708;7.134;2023-11-22T11:18:48;5.03;;;2.63;;
71091;SDS011;58751;50.708;7.134;2023-11-22T11:21:14;1.97;;;1.73;;
71091;SDS011;58751;50.708;7.134;2023-11-22T11:23:40;6.57;;;1.83;;
71091;SDS011;58751;50.708;7.134;2023-11-22T11:26:08;2.10;;;2.00;;
71091;SDS011;58751;50.708;7.134;2023-11-22T11:28:42;2.33;;;2.13;;
71091;SDS011;58751;50.708;7.134;2023-11-22T11:31:08;1.50;;;1.40;;
71091;SDS011;58751;50.708;7.134;2023-11-22T11:33:34;1.47;;;1.43;;
71091;SDS011;58751;50.708;7.134;2023-11-22T11:36:01;1.80;;;1.70;;
71091;SDS011;58751;50.708;7.134;2023-11-22T11:38:27;1.80;;;1.70;;
71091;SDS011;58751;50.708;7.134;2023-11-22T11:40:55;1.63;;;1.50;;
71091;SDS011;58751;50.708;7.134;2023-11-22T11:43:21;1.80;;;1.70;;
71091;SDS011;58751;50.708;7.134;2023-11-22T11:46:07;2.33;;;2.00;;
71091;SDS011;58751;50.708;7.134;2023-11-22T11:48:32;2.35;;;1.88;;
71091;SDS011;58751;50.708;7.134;2023-11-22T11:50:58;1.57;;;1.47;;
71091;SDS011;58751;50.708;7.134;2023-11-22T11:53:23;2.57;;;1.53;;
71091;SDS011;58751;50.708;7.134;2023-11-22T11:55:49;3.13;;;1.90;;
71091;SDS011;58751;50.708;7.134;2023-11-22T11:58:14;1.97;;;1.77;;
71091;SDS011;58751;50.708;7.134;2023-11-22T12:00:40;2.30;;;1.60;;
71091;SDS011;58751;50.708;7.134;2023-11-22T12:03:08;2.30;;;2.10;;
71091;SDS011;58751;50.708;7.134;2023-11-22T12:05:33;1.88;;;1.77;;
71091;SDS011;58751;50.708;7.134;2023-11-22T12:07:58;2.57;;;1.80;;
71091;SDS011;58751;50.708;7.134;2023-11-22T12:10:24;1.57;;;1.47;;
71091;SDS011;58751;50.708;7.134;2023-11-22T12:12:50;2.20;;;2.00;;
71091;SDS011;58751;50.708;7.134;2023-11-22T12:15:15;4.87;;;1.63;;
71091;SDS011;58751;50.708;7.134;2023-11-22T12:17:41;1.80;;;1.70;;
71091;SDS011;58751;50.708;7.134;2023-11-22T12:20:14;2.03;;;1.73;;
71091;SDS011;58751;50.708;7.134;2023-11-22T12:22:40;1.88;;;1.60;;
71091;SDS011;58751;50.708;7.134;2023-11-22T12:25:06;2.70;;;2.37;;
71091;SDS011;58751;50.708;7.134;2023-11-22T12:27:32;1.60;;;1.50;;
71091;SDS011;58751;50.708;7.134;2023-11-22T12:29:57;2.30;;;2.10;;
71091;SDS011;58751;50.708;7.134;2023-11-22T12:32:23;2.00;;;1.80;;
71091;SDS011;58751;50.708;7.134;2023-11-22T12:34:49;2.05;;;1.85;;
71091;SDS011;58751;50.708;7.134;2023-11-22T12:37:15;3.03;;;1.77;;
71091;SDS011;58751;50.708;7.134;2023-11-22T12:39:41;1.95;;;1.80;;
71091;SDS011;58751;50.708;7.134;2023-11-22T12:42:06;2.90;;;2.00;;
71091;SDS011;58751;50.708;7.134;2023-11-22T12:44:32;1.97;;;1.83;;
71091;SDS011;58751;50.708;7.134;2023-11-22T12:46:57;3.20;;;2.30;;
71091;SDS011;58751;50.708;7.134;2023-11-22T12:49:23;2.63;;;1.80;;
71091;SDS011;58751;50.708;7.134;2023-11-22T12:51:49;2.17;;;1.97;;
71091;SDS011;58751;50.708;7.134;2023-11-22T12:54:16;1.88;;;1.70;;
71091;SDS011;58751;50.708;7.134;2023-11-22T12:56:41;2.35;;;2.00;;
71091;SDS011;58751;50.708;7.134;2023-11-22T12:59:07;1.70;;;1.60;;
71091;SDS011;58751;50.708;7.134;2023-11-22T13:01:33;5.13;;;1.70;;
71091;SDS011;58751;50.708;7.134;2023-11-22T13:03:59;1.95;;;1.75;;
71091;SDS011;58751;50.708;7.134;2023-11-22T13:06:24;1.90;;;1.80;;
71091;SDS011;58751;50.708;7.134;2023-11-22T13:08:49;2.07;;;1.87;;
71091;SDS011;58751;50.708;7.134;2023-11-22T13:11:17;1.67;;;1.50;;
71091;SDS011;58751;50.708;7.134;2023-11-22T13:13:43;2.00;;;1.80;;
71091;SDS011;58751;50.708;7.134;2023-11-22T13:16:09;1.47;;;1.37;;
71091;SDS011;58751;50.708;7.134;2023-11-22T13:18:34;2.33;;;1.93;;
71091;SDS011;58751;50.708;7.134;2023-11-22T13:20:59;1.87;;;1.77;;
71091;SDS011;58751;50.708;7.134;2023-11-22T13:23:25;1.43;;;1.33;;
71091;SDS011;58751;50.708;7.134;2023-11-22T13:25:50;1.30;;;1.30;;
71091;SDS011;58751;50.708;7.134;2023-11-22T13:28:17;2.30;;;1.70;;
71091;SDS011;58751;50.708;7.134;2023-11-22T13:30:42;3.80;;;3.13;;
71091;SDS011;58751;50.708;7.134;2023-11-22T13:33:08;6.30;;;1.67;;
71091;SDS011;58751;50.708;7.134;2023-11-22T13:35:33;3.23;;;1.97;;
71091;SDS011;58751;50.708;7.134;2023-11-22T13:37:59;2.70;;;2.50;;
71091;SDS011;58751;50.708;7.134;2023-11-22T13:40:24;2.60;;;1.50;;
71091;SDS011;58751;50.708;7.134;2023-11-22T13:42:50;3.37;;;1.90;;
71091;SDS011;58751;50.708;7.134;2023-11-22T13:45:18;1.60;;;1.50;;
71091;SDS011;58751;50.708;7.134;2023-11-22T13:47:44;2.03;;;1.85;;
71091;SDS011;58751;50.708;7.134;2023-11-22T13:50:09;2.03;;;1.70;;
71091;SDS011;58751;50.708;7.134;2023-11-22T13:52:35;1.73;;;1.40;;
71091;SDS011;58751;50.708;7.134;2023-11-22T13:55:00;2.40;;;1.90;;
71091;SDS011;58751;50.708;7.134;2023-11-22T13:57:26;1.80;;;1.53;;
71091;SDS011;58751;50.708;7.134;2023-11-22T13:59:51;2.57;;;1.70;;
71091;SDS011;58751;50.708;7.134;2023-11-22T14:02:18;1.60;;;1.50;;
71091;SDS011;58751;50.708;7.134;2023-11-22T14:04:43;1.65;;;1.55;;
71091;SDS011;58751;50.708;7.134;2023-11-22T14:07:09;3.50;;;1.83;;
71091;SDS011;58751;50.708;7.134;2023-11-22T14:09:34;1.20;;;1.10;;
71091;SDS011;58751;50.708;7.134;2023-11-22T14:11:59;1.43;;;1.33;;
71091;SDS011;58751;50.708;7.134;2023-11-22T14:14:25;1.80;;;1.50;;
71091;SDS011;58751;50.708;7.134;2023-11-22T14:16:50;1.80;;;1.10;;
71091;SDS011;58751;50.708;7.134;2023-11-22T14:19:17;1.20;;;1.10;;
71091;SDS011;58751;50.708;7.134;2023-11-22T14:21:43;1.80;;;1.17;;
71091;SDS011;58751;50.708;7.134;2023-11-22T14:24:08;1.50;;;1.40;;
71091;SDS011;58751;50.708;7.134;2023-11-22T14:26:34;2.83;;;1.80;;
71091;SDS011;58751;50.708;7.134;2023-11-22T14:28:59;1.50;;;1.40;;
71091;SDS011;58751;50.708;7.134;2023-11-22T14:31:25;2.83;;;1.83;;
71091;SDS011;58751;50.708;7.134;2023-11-22T14:33:50;2.43;;;1.70;;